createdAt,value
2022-11-14T00:01:23.681Z,7.36
2022-11-14T00:03:25.360Z,7.44
2022-11-14T00:05:27.400Z,7.49
2022-11-14T00:07:33.456Z,7.56
2022-11-14T00:09:35.092Z,7.58
2022-11-14T00:11:36.727Z,7.66
2022-11-14T00:13:38.657Z,7.69
2022-11-14T00:15:40.631Z,7.70
2022-11-14T00:17:42.559Z,7.69
2022-11-14T00:19:44.557Z,7.70
2022-11-14T00:21:46.666Z,7.71
2022-11-14T00:23:48.234Z,7.71
2022-11-14T00:25:49.927Z,7.71
2022-11-14T00:27:51.859Z,7.71
2022-11-14T00:29:53.486Z,7.69
2022-11-14T00:31:55.068Z,7.75
2022-11-14T00:33:56.679Z,7.76
2022-11-14T00:35:58.307Z,7.75
2022-11-14T00:37:59.979Z,7.68
2022-11-14T00:40:01.763Z,7.66
2022-11-14T00:42:03.486Z,7.66
2022-11-14T00:44:05.238Z,7.69
2022-11-14T00:46:06.827Z,7.69
2022-11-14T00:48:08.549Z,7.67
2022-11-14T00:50:10.649Z,7.67
2022-11-14T00:52:12.320Z,7.69
2022-11-14T00:54:13.926Z,7.65
2022-11-14T00:56:16.052Z,7.63
2022-11-14T00:58:17.751Z,7.65
2022-11-14T01:00:19.520Z,7.59
2022-11-14T01:02:21.825Z,7.59
2022-11-14T01:04:23.393Z,7.61
2022-11-14T01:06:25.021Z,7.61
2022-11-14T01:08:26.879Z,7.65
2022-11-14T01:10:28.854Z,7.56
2022-11-14T01:12:30.504Z,7.57
2022-11-14T01:14:32.238Z,7.60
2022-11-14T01:16:34.046Z,7.54
2022-11-14T01:18:36.291Z,7.58
2022-11-14T01:20:42.525Z,7.46
2022-11-14T01:22:44.088Z,7.09
2022-11-14T01:24:45.661Z,7.02
2022-11-14T01:26:47.375Z,6.96
2022-11-14T01:28:48.991Z,7.00
2022-11-14T01:30:50.884Z,7.07
2022-11-14T01:32:52.514Z,7.14
2022-11-14T01:34:54.338Z,7.13
2022-11-14T01:36:55.944Z,7.16
2022-11-14T01:38:57.647Z,7.21
2022-11-14T01:40:59.560Z,7.24
2022-11-14T01:43:16.622Z,7.22
2022-11-14T01:45:57.029Z,6.86
2022-11-14T01:47:58.738Z,6.38
2022-11-14T01:50:02.582Z,6.10
2022-11-14T01:52:14.647Z,6.04
2022-11-14T01:54:32.216Z,6.01
2022-11-14T01:56:47.161Z,5.37
2022-11-14T01:59:18.696Z,5.18
2022-11-14T02:01:20.534Z,5.03
2022-11-14T02:03:22.220Z,5.12
2022-11-14T02:05:23.864Z,5.37
2022-11-14T02:07:28.071Z,5.61
2022-11-14T02:09:32.228Z,5.79
2022-11-14T02:11:37.536Z,5.87
2022-11-14T02:13:39.528Z,5.37
2022-11-14T02:15:41.453Z,4.95
2022-11-14T02:17:44.362Z,4.40
2022-11-14T02:19:52.288Z,4.19
2022-11-14T02:21:54.010Z,4.21
2022-11-14T02:23:55.573Z,4.43
2022-11-14T02:25:57.813Z,4.72
2022-11-14T02:28:00.326Z,4.99
2022-11-14T02:30:14.480Z,5.24
2022-11-14T02:32:16.390Z,5.19
2022-11-14T02:34:20.317Z,5.34
2022-11-14T02:36:21.869Z,5.42
2022-11-14T02:38:23.512Z,5.55
2022-11-14T02:40:25.199Z,5.72
2022-11-14T02:42:26.817Z,5.79
2022-11-14T02:44:28.556Z,5.88
2022-11-14T02:46:30.186Z,5.97
2022-11-14T02:48:31.955Z,6.07
2022-11-14T02:50:33.825Z,6.19
2022-11-14T02:52:35.696Z,6.23
2022-11-14T02:54:37.356Z,6.27
2022-11-14T02:56:39.200Z,6.31
2022-11-14T02:58:40.908Z,6.29
2022-11-14T03:01:05.865Z,6.30
2022-11-14T03:03:04.126Z,6.32
2022-11-14T03:05:06.230Z,6.32
2022-11-14T03:07:07.939Z,6.35
2022-11-14T03:09:10.099Z,6.31
2022-11-14T03:11:11.863Z,6.36
2022-11-14T03:13:13.415Z,6.41
2022-11-14T03:15:15.320Z,6.43
2022-11-14T03:17:17.025Z,6.43
2022-11-14T03:19:19.565Z,6.42
2022-11-14T03:21:23.856Z,6.47
2022-11-14T03:23:25.551Z,6.53
2022-11-14T03:25:27.178Z,6.51
2022-11-14T03:27:28.733Z,6.53
2022-11-14T03:29:30.752Z,6.51
2022-11-14T03:31:32.382Z,6.51
2022-11-14T03:33:34.297Z,6.50
2022-11-14T03:35:35.953Z,6.46
2022-11-14T03:37:37.611Z,6.43
2022-11-14T03:39:39.306Z,6.47
2022-11-14T03:41:40.996Z,6.51
2022-11-14T03:43:42.698Z,6.53
2022-11-14T03:45:44.490Z,6.53
2022-11-14T03:47:46.288Z,6.46
2022-11-14T03:49:47.918Z,6.36
2022-11-14T03:51:50.701Z,6.26
2022-11-14T03:53:52.336Z,6.18
2022-11-14T03:55:54.319Z,6.10
2022-11-14T03:57:55.985Z,6.02
2022-11-14T03:59:57.655Z,5.81
2022-11-14T04:01:59.405Z,5.59
2022-11-14T04:04:01.018Z,5.61
2022-11-14T04:06:03.261Z,5.72
2022-11-14T04:08:06.089Z,5.86
2022-11-14T04:10:08.250Z,5.99
2022-11-14T04:12:15.352Z,6.08
2022-11-14T04:14:17.550Z,6.11
2022-11-14T04:16:19.225Z,6.22
2022-11-14T04:18:20.869Z,6.32
2022-11-14T04:20:22.459Z,6.39
2022-11-14T04:22:24.178Z,6.37
2022-11-14T04:24:25.788Z,6.36
2022-11-14T04:26:27.375Z,6.22
2022-11-14T04:28:29.126Z,6.24
2022-11-14T04:30:34.561Z,6.20
2022-11-14T04:32:36.869Z,6.15
2022-11-14T04:34:39.045Z,6.15
2022-11-14T04:36:40.914Z,6.11
2022-11-14T04:38:42.602Z,6.07
2022-11-14T04:40:51.446Z,6.11
2022-11-14T04:42:53.050Z,6.12
2022-11-14T04:44:54.751Z,6.13
2022-11-14T04:46:57.237Z,6.18
2022-11-14T04:48:58.957Z,6.21
2022-11-14T04:51:00.569Z,6.14
2022-11-14T04:53:02.659Z,6.17
2022-11-14T04:55:04.558Z,6.13
2022-11-14T04:57:06.142Z,5.99
2022-11-14T04:59:08.102Z,5.91
2022-11-14T05:01:10.573Z,5.85
2022-11-14T05:03:12.308Z,5.84
2022-11-14T05:05:14.013Z,5.86
2022-11-14T05:07:15.951Z,5.83
2022-11-14T05:09:17.607Z,5.83
2022-11-14T05:11:23.088Z,5.81
2022-11-14T05:13:26.913Z,5.68
2022-11-14T05:15:28.864Z,5.51
2022-11-14T05:17:30.453Z,5.29
2022-11-14T05:19:32.048Z,5.20
2022-11-14T05:21:33.708Z,5.25
2022-11-14T05:23:35.453Z,5.17
2022-11-14T05:25:37.040Z,5.21
2022-11-14T05:27:38.716Z,5.16
2022-11-14T05:29:40.302Z,5.20
2022-11-14T05:31:41.897Z,5.33
2022-11-14T05:33:44.733Z,5.44
2022-11-14T05:35:46.292Z,5.54
2022-11-14T05:37:48.018Z,5.64
2022-11-14T05:39:49.644Z,5.71
2022-11-14T05:41:51.181Z,5.78
2022-11-14T05:43:52.834Z,5.83
2022-11-14T05:45:54.514Z,5.96
2022-11-14T05:47:57.149Z,5.98
2022-11-14T05:49:58.977Z,5.97
2022-11-14T05:52:00.571Z,5.95
2022-11-14T05:54:02.320Z,5.97
2022-11-14T05:56:05.789Z,5.89
2022-11-14T05:58:07.377Z,5.89
2022-11-14T06:00:09.649Z,5.95
2022-11-14T06:02:11.468Z,6.03
2022-11-14T06:04:15.065Z,6.03
2022-11-14T06:06:19.147Z,6.06
2022-11-14T06:08:20.738Z,6.08
2022-11-14T06:10:22.439Z,6.12
2022-11-14T06:12:24.067Z,6.18
2022-11-14T06:14:25.660Z,6.11
2022-11-14T06:16:27.407Z,6.10
2022-11-14T06:18:30.337Z,6.00
2022-11-14T06:20:32.210Z,6.02
2022-11-14T06:22:35.180Z,6.01
2022-11-14T06:24:36.938Z,6.00
2022-11-14T06:26:38.547Z,5.97
2022-11-14T06:28:40.224Z,5.99
2022-11-14T06:30:41.935Z,6.05
2022-11-14T06:32:43.589Z,6.11
2022-11-14T06:34:45.213Z,6.11
2022-11-14T06:36:46.843Z,6.08
2022-11-14T06:38:49.036Z,6.05
2022-11-14T06:40:50.673Z,6.11
2022-11-14T06:42:55.828Z,6.14
2022-11-14T06:44:57.473Z,6.17
2022-11-14T06:46:59.145Z,6.22
2022-11-14T06:49:00.812Z,6.18
2022-11-14T06:51:03.304Z,6.24
2022-11-14T06:53:04.933Z,6.35
2022-11-14T06:55:07.180Z,6.41
2022-11-14T06:57:08.799Z,6.43
2022-11-14T06:59:10.573Z,6.44
2022-11-14T07:01:22.107Z,6.47
2022-11-14T07:03:23.713Z,6.48
2022-11-14T07:05:25.288Z,6.49
2022-11-14T07:07:28.731Z,6.54
2022-11-14T07:09:30.576Z,6.65
2022-11-14T07:11:33.234Z,6.67
2022-11-14T07:13:35.957Z,6.62
2022-11-14T07:15:37.558Z,6.65
2022-11-14T07:17:39.172Z,6.66
2022-11-14T07:19:40.793Z,6.65
2022-11-14T07:21:42.518Z,6.60
2022-11-14T07:23:44.173Z,6.60
2022-11-14T07:25:45.778Z,6.64
2022-11-14T07:27:47.655Z,6.75
2022-11-14T07:29:49.334Z,6.79
2022-11-14T07:31:51.041Z,6.85
2022-11-14T07:33:52.612Z,6.90
2022-11-14T07:35:54.267Z,7.05
2022-11-14T07:38:01.739Z,7.13
2022-11-14T07:40:03.570Z,7.16
2022-11-14T07:42:05.221Z,7.29
2022-11-14T07:44:06.843Z,7.35
2022-11-14T07:46:11.593Z,7.20
2022-11-14T07:48:13.374Z,6.95
2022-11-14T07:50:20.051Z,6.87
2022-11-14T07:52:22.117Z,6.44
2022-11-14T07:54:23.668Z,6.11
2022-11-14T07:56:26.813Z,5.90
2022-11-14T07:58:28.604Z,5.76
2022-11-14T08:00:30.972Z,5.51
2022-11-14T08:02:32.586Z,5.56
2022-11-14T08:04:34.179Z,5.51
2022-11-14T08:06:35.797Z,5.66
2022-11-14T08:08:37.795Z,5.78
2022-11-14T08:10:39.427Z,5.98
2022-11-14T08:12:41.233Z,6.19
2022-11-14T08:14:43.099Z,6.35
2022-11-14T08:16:44.718Z,6.49
2022-11-14T08:18:46.329Z,6.64
2022-11-14T08:20:48.010Z,6.60
2022-11-14T08:22:49.891Z,6.72
2022-11-14T08:24:51.492Z,6.82
2022-11-14T08:26:53.075Z,6.79
2022-11-14T08:28:54.817Z,6.74
2022-11-14T08:31:03.938Z,6.87
2022-11-14T08:33:06.432Z,6.91
2022-11-14T08:35:08.189Z,7.08
2022-11-14T08:37:10.038Z,7.17
2022-11-14T08:39:11.620Z,7.36
2022-11-14T08:41:13.295Z,7.41
2022-11-14T08:43:14.982Z,7.46
2022-11-14T08:45:16.565Z,7.47
2022-11-14T08:47:18.219Z,7.41
2022-11-14T08:49:19.907Z,7.54
2022-11-14T08:51:21.494Z,7.56
2022-11-14T08:53:23.164Z,7.63
2022-11-14T08:55:24.873Z,7.67
2022-11-14T08:57:26.527Z,7.64
2022-11-14T08:59:28.229Z,7.64
2022-11-14T09:01:29.986Z,7.66
2022-11-14T09:03:31.876Z,7.74
2022-11-14T09:05:34.512Z,7.81
2022-11-14T09:07:36.392Z,7.85
2022-11-14T09:09:38.119Z,7.94
2022-11-14T09:11:39.912Z,8.09
2022-11-14T09:13:41.601Z,8.03
2022-11-14T09:15:43.404Z,8.06
2022-11-14T09:17:45.114Z,8.07
2022-11-14T09:19:46.807Z,8.05
2022-11-14T09:21:48.443Z,8.01
2022-11-14T09:23:50.114Z,7.41
2022-11-14T09:25:51.761Z,7.35
2022-11-14T09:27:53.748Z,7.48
2022-11-14T09:29:55.596Z,7.67
2022-11-14T09:31:57.371Z,7.84
2022-11-14T09:33:59.000Z,7.99
2022-11-14T09:36:08.347Z,8.12
2022-11-14T09:38:11.776Z,8.27
2022-11-14T09:40:14.528Z,8.59
2022-11-14T09:42:28.585Z,8.90
2022-11-14T09:45:03.595Z,9.24
2022-11-14T09:47:09.575Z,9.48
2022-11-14T09:49:23.219Z,9.64
2022-11-14T09:51:34.157Z,9.77
2022-11-14T09:53:48.327Z,9.93
2022-11-14T09:55:49.974Z,10.02
2022-11-14T09:57:51.687Z,10.16
2022-11-14T09:59:53.421Z,10.22
2022-11-14T10:02:06.623Z,10.27
2022-11-14T10:04:27.978Z,10.32
2022-11-14T10:06:40.084Z,10.48
2022-11-14T10:09:00.116Z,10.63
2022-11-14T10:11:07.275Z,10.70
2022-11-14T10:13:16.808Z,10.70
2022-11-14T10:15:33.709Z,10.20
2022-11-14T10:17:57.282Z,10.13
2022-11-14T10:20:28.754Z,10.15
2022-11-14T10:23:21.177Z,10.22
2022-11-14T10:25:26.523Z,10.42
2022-11-14T10:27:31.551Z,10.53
2022-11-14T10:29:55.080Z,10.71
2022-11-14T10:32:09.110Z,10.09
2022-11-14T10:34:28.059Z,9.95
2022-11-14T10:36:52.581Z,9.60
2022-11-14T10:39:12.202Z,9.59
2022-11-14T10:41:34.641Z,9.62
2022-11-14T10:43:39.648Z,9.90
2022-11-14T10:45:44.431Z,9.92
2022-11-14T10:47:56.427Z,9.82
2022-11-14T10:50:00.847Z,9.76
2022-11-14T10:52:06.450Z,9.30
2022-11-14T10:54:49.448Z,9.35
2022-11-14T10:56:53.486Z,9.49
2022-11-14T10:58:55.277Z,9.09
2022-11-14T11:00:56.949Z,8.94
2022-11-14T11:02:58.677Z,9.02
2022-11-14T11:05:13.009Z,9.21
2022-11-14T11:07:42.870Z,9.33
2022-11-14T11:10:10.401Z,9.54
2022-11-14T11:12:20.777Z,9.69
2022-11-14T11:14:23.125Z,9.95
2022-11-14T11:16:26.566Z,10.10
2022-11-14T11:18:31.330Z,10.08
2022-11-14T11:20:33.372Z,10.10
2022-11-14T11:22:39.082Z,10.30
2022-11-14T11:24:40.714Z,10.58
2022-11-14T11:26:42.388Z,10.81
2022-11-14T11:28:44.108Z,10.93
2022-11-14T11:31:09.037Z,10.70
2022-11-14T11:33:36.062Z,10.50
2022-11-14T11:35:37.936Z,10.10
2022-11-14T11:37:55.036Z,10.09
2022-11-14T11:39:59.316Z,10.17
2022-11-14T11:42:10.220Z,10.12
2022-11-14T11:44:16.135Z,10.24
2022-11-14T11:46:25.371Z,10.22
2022-11-14T11:48:35.268Z,10.34
2022-11-14T11:50:37.073Z,10.42
2022-11-14T11:52:50.494Z,10.61
2022-11-14T11:55:04.524Z,10.79
2022-11-14T11:57:17.159Z,10.81
2022-11-14T11:59:35.167Z,10.97
2022-11-14T12:01:36.838Z,11.06
2022-11-14T12:03:39.204Z,11.15
2022-11-14T12:05:47.782Z,11.23
2022-11-14T12:08:04.518Z,10.97
2022-11-14T12:10:23.420Z,11.22
2022-11-14T12:12:25.070Z,11.32
2022-11-14T12:14:32.824Z,11.50
2022-11-14T12:16:58.838Z,11.69
2022-11-14T12:19:25.315Z,11.60
2022-11-14T12:22:12.091Z,11.33
2022-11-14T12:24:22.653Z,11.27
2022-11-14T12:26:24.393Z,11.03
2022-11-14T12:28:44.452Z,10.59
2022-11-14T12:30:52.900Z,10.57
2022-11-14T12:32:57.518Z,10.55
2022-11-14T12:35:00.353Z,10.41
2022-11-14T12:37:19.863Z,10.54
2022-11-14T12:39:27.210Z,10.71
2022-11-14T12:41:31.464Z,10.86
2022-11-14T12:43:43.148Z,10.99
2022-11-14T12:45:45.214Z,11.06
2022-11-14T12:48:16.215Z,11.00
2022-11-14T12:50:43.904Z,10.95
2022-11-14T12:52:54.097Z,11.06
2022-11-14T12:54:56.065Z,11.15
2022-11-14T12:57:03.955Z,11.16
2022-11-14T12:59:47.483Z,11.29
2022-11-14T13:01:51.960Z,11.22
2022-11-14T13:04:18.120Z,11.24
2022-11-14T13:06:39.957Z,11.21
2022-11-14T13:09:29.758Z,11.24
2022-11-14T13:11:51.381Z,11.34
2022-11-14T13:14:20.022Z,11.31
2022-11-14T13:16:50.435Z,11.22
2022-11-14T13:19:10.736Z,11.01
2022-11-14T13:21:47.719Z,11.15
2022-11-14T13:23:49.319Z,11.18
2022-11-14T13:26:11.229Z,11.39
2022-11-14T13:28:38.054Z,11.45
2022-11-14T13:31:17.181Z,11.55
2022-11-14T13:33:44.354Z,11.56
2022-11-14T13:35:49.693Z,11.53
2022-11-14T13:38:06.567Z,11.57
2022-11-14T13:40:19.396Z,11.62
2022-11-14T13:42:32.338Z,11.62
2022-11-14T13:44:47.440Z,11.71
2022-11-14T13:46:57.790Z,11.76
2022-11-14T13:48:59.426Z,11.77
2022-11-14T13:51:36.283Z,11.74
2022-11-14T13:53:30.599Z,11.75
2022-11-14T13:55:56.660Z,11.64
2022-11-14T13:58:29.407Z,11.79
2022-11-14T14:00:54.417Z,11.94
2022-11-14T14:03:33.032Z,12.06
2022-11-14T14:06:12.215Z,12.16
2022-11-14T14:08:23.958Z,12.17
2022-11-14T14:10:49.184Z,12.08
2022-11-14T14:13:29.497Z,12.02
2022-11-14T14:15:38.219Z,11.94
2022-11-14T14:17:43.541Z,11.96
2022-11-14T14:20:03.994Z,11.99
2022-11-14T14:22:22.692Z,11.93
2022-11-14T14:24:42.644Z,11.91
2022-11-14T14:26:55.889Z,11.77
2022-11-14T14:29:16.418Z,11.71
2022-11-14T14:31:20.290Z,11.74
2022-11-14T14:33:22.320Z,11.79
2022-11-14T14:35:38.858Z,11.75
2022-11-14T14:37:51.426Z,11.65
2022-11-14T14:40:00.924Z,11.63
2022-11-14T14:42:10.878Z,11.62
2022-11-14T14:44:39.760Z,11.57
2022-11-14T14:46:41.387Z,11.50
2022-11-14T14:48:43.899Z,11.43
2022-11-14T14:50:53.760Z,11.43
2022-11-14T14:52:59.059Z,11.41
2022-11-14T14:55:03.689Z,11.37
2022-11-14T14:57:05.469Z,11.30
2022-11-14T14:59:26.394Z,11.28
2022-11-14T15:01:35.424Z,11.28
2022-11-14T15:03:40.276Z,11.23
2022-11-14T15:05:41.954Z,11.17
2022-11-14T15:07:43.737Z,11.12
2022-11-14T15:09:56.731Z,11.03
2022-11-14T15:12:00.331Z,11.01
2022-11-14T15:14:02.559Z,10.93
2022-11-14T15:16:05.743Z,10.79
2022-11-14T15:18:08.889Z,10.85
2022-11-14T15:20:27.538Z,10.86
2022-11-14T15:22:29.375Z,10.79
2022-11-14T15:24:31.230Z,10.84
2022-11-14T15:26:34.986Z,10.89
2022-11-14T15:28:36.647Z,10.94
2022-11-14T15:30:39.225Z,10.98
2022-11-14T15:32:49.083Z,10.99
2022-11-14T15:35:11.261Z,10.98
2022-11-14T15:37:18.644Z,10.99
2022-11-14T15:39:27.783Z,10.99
2022-11-14T15:41:33.382Z,10.98
2022-11-14T15:43:50.598Z,10.99
2022-11-14T15:45:52.322Z,10.95
2022-11-14T15:48:04.915Z,10.94
2022-11-14T15:50:28.412Z,10.79
2022-11-14T15:52:41.359Z,10.64
2022-11-14T15:54:43.041Z,10.55
2022-11-14T15:56:44.644Z,10.51
2022-11-14T15:58:49.369Z,10.52
2022-11-14T16:00:52.608Z,10.55
2022-11-14T16:02:57.855Z,10.59
2022-11-14T16:04:59.798Z,10.63
2022-11-14T16:07:01.584Z,10.61
2022-11-14T16:09:03.386Z,10.62
2022-11-14T16:11:05.133Z,10.60
2022-11-14T16:13:06.811Z,10.59
2022-11-14T16:15:08.800Z,10.53
2022-11-14T16:17:14.956Z,10.45
2022-11-14T16:19:17.225Z,10.44
2022-11-14T16:21:18.942Z,10.44
2022-11-14T16:23:20.531Z,10.44
2022-11-14T16:25:29.940Z,10.44
2022-11-14T16:27:31.520Z,10.43
2022-11-14T16:29:33.117Z,10.42
2022-11-14T16:31:35.455Z,10.42
2022-11-14T16:33:40.231Z,10.42
2022-11-14T16:35:41.855Z,10.41
2022-11-14T16:37:43.662Z,10.40
2022-11-14T16:39:45.289Z,10.38
2022-11-14T16:41:46.970Z,10.35
2022-11-14T16:43:48.582Z,10.35
2022-11-14T16:45:50.287Z,10.33
2022-11-14T16:47:52.572Z,10.31
2022-11-14T16:49:54.183Z,10.30
2022-11-14T16:51:58.149Z,10.27
2022-11-14T16:53:59.768Z,10.24
2022-11-14T16:56:01.454Z,10.23
2022-11-14T16:58:03.031Z,10.20
2022-11-14T17:00:06.662Z,10.20
2022-11-14T17:02:14.116Z,10.18
2022-11-14T17:04:16.092Z,10.14
2022-11-14T17:06:17.693Z,10.13
2022-11-14T17:08:19.403Z,10.10
2022-11-14T17:10:21.276Z,10.07
2022-11-14T17:12:22.958Z,10.02
2022-11-14T17:14:28.168Z,10.00
2022-11-14T17:16:29.801Z,9.97
2022-11-14T17:18:37.125Z,9.89
2022-11-14T17:20:40.138Z,9.87
2022-11-14T17:22:41.839Z,9.84
2022-11-14T17:24:43.596Z,9.86
2022-11-14T17:26:45.256Z,9.87
2022-11-14T17:28:46.975Z,9.84
2022-11-14T17:30:48.572Z,9.82
2022-11-14T17:32:55.183Z,9.80
2022-11-14T17:34:58.225Z,9.78
2022-11-14T17:36:59.751Z,9.79
2022-11-14T17:39:01.443Z,9.78
2022-11-14T17:41:06.671Z,9.74
2022-11-14T17:43:08.366Z,9.73
2022-11-14T17:45:10.156Z,9.71
2022-11-14T17:47:11.882Z,9.67
2022-11-14T17:49:13.536Z,9.66
2022-11-14T17:51:16.222Z,9.64
2022-11-14T17:53:18.210Z,9.62
2022-11-14T17:55:19.938Z,9.66
2022-11-14T17:57:21.526Z,9.63
2022-11-14T17:59:23.209Z,9.61
2022-11-14T18:01:25.112Z,9.56
2022-11-14T18:03:27.847Z,9.55
2022-11-14T18:05:29.840Z,9.55
2022-11-14T18:07:33.152Z,9.55
2022-11-14T18:09:34.845Z,9.56
2022-11-14T18:11:36.633Z,9.53
2022-11-14T18:13:39.159Z,9.48
2022-11-14T18:15:40.914Z,9.48
2022-11-14T18:17:42.575Z,9.46
2022-11-14T18:19:44.201Z,9.48
2022-11-14T18:21:50.620Z,9.48
2022-11-14T18:23:58.970Z,9.48
2022-11-14T18:26:01.033Z,9.46
2022-11-14T18:28:02.741Z,9.47
2022-11-14T18:30:20.016Z,9.45
2022-11-14T18:32:26.435Z,9.45
2022-11-14T18:34:28.121Z,9.42
2022-11-14T18:36:29.788Z,9.43
2022-11-14T18:38:34.252Z,9.40
2022-11-14T18:40:36.114Z,9.40
2022-11-14T18:42:37.742Z,9.36
2022-11-14T18:44:39.372Z,9.33
2022-11-14T18:46:41.181Z,9.29
2022-11-14T18:48:45.279Z,9.28
2022-11-14T18:50:47.003Z,9.28
2022-11-14T18:52:48.792Z,9.29
2022-11-14T18:54:50.436Z,9.29
2022-11-14T18:56:52.097Z,9.24
2022-11-14T18:58:55.531Z,9.17
2022-11-14T19:00:57.255Z,9.13
2022-11-14T19:03:04.831Z,9.10
2022-11-14T19:05:08.799Z,9.09
2022-11-14T19:07:10.651Z,9.10
2022-11-14T19:09:16.104Z,9.08
2022-11-14T19:11:36.896Z,9.06
2022-11-14T19:13:38.579Z,9.07
2022-11-14T19:15:40.882Z,9.02
2022-11-14T19:17:43.139Z,8.99
2022-11-14T19:19:44.788Z,8.97
2022-11-14T19:21:50.550Z,8.97
2022-11-14T19:23:52.213Z,8.96
2022-11-14T19:26:01.419Z,8.96
2022-11-14T19:28:03.090Z,8.97
2022-11-14T19:30:05.200Z,8.96
2022-11-14T19:32:07.176Z,8.95
2022-11-14T19:34:10.348Z,8.95
2022-11-14T19:36:45.313Z,8.92
2022-11-14T19:38:44.550Z,8.93
2022-11-14T19:40:50.926Z,8.94
2022-11-14T19:43:00.300Z,8.93
2022-11-14T19:45:01.924Z,8.91
2022-11-14T19:47:03.651Z,8.82
2022-11-14T19:49:05.353Z,8.78
2022-11-14T19:51:11.943Z,8.81
2022-11-14T19:53:13.701Z,8.79
2022-11-14T19:55:15.415Z,8.70
2022-11-14T19:57:17.153Z,8.58
2022-11-14T19:59:23.046Z,8.35
2022-11-14T20:01:27.590Z,7.88
2022-11-14T20:03:29.711Z,7.66
2022-11-14T20:05:32.533Z,7.34
2022-11-14T20:07:35.479Z,7.13
2022-11-14T20:09:37.343Z,7.03
2022-11-14T20:11:39.276Z,7.13
2022-11-14T20:13:42.487Z,7.18
2022-11-14T20:15:44.195Z,7.29
2022-11-14T20:17:45.880Z,7.49
2022-11-14T20:19:47.489Z,7.61
2022-11-14T20:21:49.207Z,7.58
2022-11-14T20:23:51.460Z,7.35
2022-11-14T20:25:53.414Z,7.31
2022-11-14T20:27:55.140Z,7.26
2022-11-14T20:29:56.862Z,7.31
2022-11-14T20:31:58.550Z,7.45
2022-11-14T20:34:00.324Z,7.55
2022-11-14T20:36:03.534Z,7.63
2022-11-14T20:38:06.011Z,7.70
2022-11-14T20:40:08.420Z,7.80
2022-11-14T20:42:10.125Z,7.86
2022-11-14T20:44:11.768Z,7.93
2022-11-14T20:46:15.515Z,7.98
2022-11-14T20:48:17.109Z,8.01
2022-11-14T20:50:19.150Z,8.05
2022-11-14T20:52:20.935Z,8.07
2022-11-14T20:54:22.625Z,8.04
2022-11-14T20:56:24.339Z,8.03
2022-11-14T20:58:29.268Z,8.05
2022-11-14T21:00:31.112Z,8.05
2022-11-14T21:02:33.542Z,8.03
2022-11-14T21:04:35.297Z,8.08
2022-11-14T21:06:36.965Z,8.07
2022-11-14T21:08:38.865Z,8.10
2022-11-14T21:10:47.970Z,8.11
2022-11-14T21:13:09.582Z,8.08
2022-11-14T21:15:14.280Z,8.02
2022-11-14T21:17:15.876Z,7.95
2022-11-14T21:19:17.924Z,7.78
2022-11-14T21:21:21.056Z,7.66
2022-11-14T21:23:22.799Z,7.57
2022-11-14T21:25:25.270Z,7.43
2022-11-14T21:27:26.815Z,7.45
2022-11-14T21:29:28.739Z,7.47
2022-11-14T21:31:34.633Z,7.54
2022-11-14T21:33:36.255Z,7.56
2022-11-14T21:35:38.030Z,7.63
2022-11-14T21:37:39.690Z,7.62
2022-11-14T21:39:41.566Z,7.66
2022-11-14T21:41:44.314Z,7.63
2022-11-14T21:43:46.481Z,7.64
2022-11-14T21:46:02.127Z,7.66
2022-11-14T21:48:03.984Z,7.69
2022-11-14T21:50:05.967Z,7.70
2022-11-14T21:52:07.609Z,7.70
2022-11-14T21:54:09.504Z,7.72
2022-11-14T21:56:23.012Z,7.77
2022-11-14T21:58:25.018Z,7.82
2022-11-14T22:00:26.609Z,7.86
2022-11-14T22:02:46.856Z,7.80
2022-11-14T22:04:48.458Z,7.82
2022-11-14T22:06:56.708Z,7.81
2022-11-14T22:08:58.329Z,7.76
2022-11-14T22:11:00.681Z,7.75
2022-11-14T22:13:29.815Z,7.72
2022-11-14T22:15:31.719Z,7.73
2022-11-14T22:17:33.418Z,7.67
2022-11-14T22:19:35.174Z,7.64
2022-11-14T22:21:36.901Z,7.62
2022-11-14T22:23:38.802Z,7.53
2022-11-14T22:25:40.484Z,7.44
2022-11-14T22:27:42.098Z,7.34
2022-11-14T22:29:43.726Z,7.19
2022-11-14T22:31:45.417Z,7.21
2022-11-14T22:33:48.671Z,7.21
2022-11-14T22:35:50.262Z,7.17
2022-11-14T22:37:51.848Z,7.19
2022-11-14T22:39:53.570Z,7.24
2022-11-14T22:41:55.220Z,7.30
2022-11-14T22:43:57.708Z,7.36
2022-11-14T22:46:00.539Z,7.39
2022-11-14T22:48:02.112Z,7.44
2022-11-14T22:50:03.990Z,7.43
2022-11-14T22:52:05.600Z,7.41
2022-11-14T22:54:07.203Z,7.26
2022-11-14T22:56:10.738Z,7.09
2022-11-14T22:58:12.272Z,6.77
2022-11-14T23:00:15.377Z,6.64
2022-11-14T23:02:17.089Z,6.54
2022-11-14T23:04:18.802Z,6.54
2022-11-14T23:06:20.867Z,6.55
2022-11-14T23:08:22.530Z,6.61
2022-11-14T23:10:24.196Z,6.66
2022-11-14T23:12:25.965Z,6.72
2022-11-14T23:14:27.708Z,6.75
2022-11-14T23:16:31.570Z,6.83
2022-11-14T23:18:33.069Z,6.87
2022-11-14T23:20:35.806Z,6.93
2022-11-14T23:22:37.488Z,6.95
2022-11-14T23:24:39.106Z,6.97
2022-11-14T23:26:40.876Z,6.98
2022-11-14T23:28:42.978Z,7.03
2022-11-14T23:30:44.572Z,7.07
2022-11-14T23:32:46.577Z,7.11
2022-11-14T23:34:48.167Z,7.11
2022-11-14T23:36:49.752Z,7.08
2022-11-14T23:38:54.534Z,6.97
2022-11-14T23:41:00.587Z,6.89
2022-11-14T23:43:02.263Z,6.86
2022-11-14T23:45:04.178Z,6.86
2022-11-14T23:47:05.826Z,6.86
2022-11-14T23:49:07.581Z,6.88
2022-11-14T23:51:09.926Z,6.78
2022-11-14T23:53:12.116Z,6.75
2022-11-14T23:55:13.730Z,6.78
2022-11-14T23:57:15.428Z,6.78
2022-11-14T23:59:17.103Z,6.80
